sensor_id;sensor_type;location;lat;lon;timestamp;temperature;humidity
36990;DHT22;22898;52.102;5.776;2022-12-07T00:02:04;11.70;94.50
36990;DHT22;22898;52.102;5.776;2022-12-07T00:04:29;11.70;94.30
36990;DHT22;22898;52.102;5.776;2022-12-07T00:06:55;11.70;94.30
36990;DHT22;22898;52.102;5.776;2022-12-07T00:09:21;11.60;94.20
36990;DHT22;22898;52.102;5.776;2022-12-07T00:11:49;11.60;94.30
36990;DHT22;22898;52.102;5.776;2022-12-07T00:14:16;11.60;94.10
36990;DHT22;22898;52.102;5.776;2022-12-07T00:16:43;11.50;94.10
36990;DHT22;22898;52.102;5.776;2022-12-07T00:19:11;11.50;94.10
36990;DHT22;22898;52.102;5.776;2022-12-07T00:21:37;11.50;94.20
36990;DHT22;22898;52.102;5.776;2022-12-07T00:24:05;11.40;94.10
36990;DHT22;22898;52.102;5.776;2022-12-07T00:26:38;11.40;94.20
36990;DHT22;22898;52.102;5.776;2022-12-07T00:31:37;11.30;94.20
36990;DHT22;22898;52.102;5.776;2022-12-07T00:34:07;11.30;94.10
36990;DHT22;22898;52.102;5.776;2022-12-07T00:36:33;11.30;94.20
36990;DHT22;22898;52.102;5.776;2022-12-07T00:39:00;11.30;94.10
36990;DHT22;22898;52.102;5.776;2022-12-07T00:41:27;11.30;94.10
36990;DHT22;22898;52.102;5.776;2022-12-07T00:43:53;11.30;94.00
36990;DHT22;22898;52.102;5.776;2022-12-07T00:46:19;11.20;94.00
36990;DHT22;22898;52.102;5.776;2022-12-07T00:48:46;11.20;94.10
36990;DHT22;22898;52.102;5.776;2022-12-07T00:51:13;11.10;94.10
36990;DHT22;22898;52.102;5.776;2022-12-07T00:53:39;11.00;94.20
36990;DHT22;22898;52.102;5.776;2022-12-07T00:56:06;11.10;94.10
36990;DHT22;22898;52.102;5.776;2022-12-07T00:58:31;11.00;94.10
36990;DHT22;22898;52.102;5.776;2022-12-07T01:01:03;11.00;94.00
36990;DHT22;22898;52.102;5.776;2022-12-07T01:03:28;11.00;94.00
36990;DHT22;22898;52.102;5.776;2022-12-07T01:05:55;11.00;94.00
36990;DHT22;22898;52.102;5.776;2022-12-07T01:08:22;11.00;94.00
36990;DHT22;22898;52.102;5.776;2022-12-07T01:10:48;11.00;93.90
36990;DHT22;22898;52.102;5.776;2022-12-07T01:13:14;11.00;93.90
36990;DHT22;22898;52.102;5.776;2022-12-07T01:15:42;11.10;93.80
36990;DHT22;22898;52.102;5.776;2022-12-07T01:18:08;11.00;93.80
36990;DHT22;22898;52.102;5.776;2022-12-07T01:20:38;10.90;93.90
36990;DHT22;22898;52.102;5.776;2022-12-07T01:23:04;10.90;93.90
36990;DHT22;22898;52.102;5.776;2022-12-07T01:25:29;10.90;93.80
36990;DHT22;22898;52.102;5.776;2022-12-07T01:27:55;10.90;93.80
36990;DHT22;22898;52.102;5.776;2022-12-07T01:30:20;10.90;93.70
36990;DHT22;22898;52.102;5.776;2022-12-07T01:32:46;10.90;93.70
36990;DHT22;22898;52.102;5.776;2022-12-07T01:35:11;10.80;93.60
36990;DHT22;22898;52.102;5.776;2022-12-07T01:37:38;10.90;93.70
36990;DHT22;22898;52.102;5.776;2022-12-07T01:40:05;10.80;93.70
36990;DHT22;22898;52.102;5.776;2022-12-07T01:42:31;10.70;93.80
36990;DHT22;22898;52.102;5.776;2022-12-07T01:45:36;10.70;93.80
36990;DHT22;22898;52.102;5.776;2022-12-07T01:48:02;10.70;93.70
36990;DHT22;22898;52.102;5.776;2022-12-07T01:50:29;10.60;93.80
36990;DHT22;22898;52.102;5.776;2022-12-07T01:52:58;10.50;93.70
36990;DHT22;22898;52.102;5.776;2022-12-07T01:55:25;10.50;93.90
36990;DHT22;22898;52.102;5.776;2022-12-07T01:57:52;10.50;93.90
36990;DHT22;22898;52.102;5.776;2022-12-07T02:00:19;10.50;94.00
36990;DHT22;22898;52.102;5.776;2022-12-07T02:02:53;10.50;93.80
36990;DHT22;22898;52.102;5.776;2022-12-07T02:05:22;10.50;93.80
36990;DHT22;22898;52.102;5.776;2022-12-07T02:07:50;10.30;94.00
36990;DHT22;22898;52.102;5.776;2022-12-07T02:10:17;10.20;94.40
36990;DHT22;22898;52.102;5.776;2022-12-07T02:12:50;10.10;94.80
36990;DHT22;22898;52.102;5.776;2022-12-07T02:15:20;10.20;94.70
36990;DHT22;22898;52.102;5.776;2022-12-07T02:23:29;9.90;95.10
36990;DHT22;22898;52.102;5.776;2022-12-07T02:29:25;10.00;95.10
36990;DHT22;22898;52.102;5.776;2022-12-07T02:31:59;10.00;95.10
36990;DHT22;22898;52.102;5.776;2022-12-07T02:37:43;10.20;94.80
36990;DHT22;22898;52.102;5.776;2022-12-07T02:42:48;10.20;94.60
36990;DHT22;22898;52.102;5.776;2022-12-07T02:45:19;10.30;94.60
36990;DHT22;22898;52.102;5.776;2022-12-07T02:47:50;10.20;94.50
36990;DHT22;22898;52.102;5.776;2022-12-07T02:50:21;10.30;94.70
36990;DHT22;22898;52.102;5.776;2022-12-07T02:52:47;10.40;94.60
36990;DHT22;22898;52.102;5.776;2022-12-07T02:55:14;10.30;94.80
36990;DHT22;22898;52.102;5.776;2022-12-07T02:58:06;10.20;95.20
36990;DHT22;22898;52.102;5.776;2022-12-07T03:00:52;10.50;94.90
36990;DHT22;22898;52.102;5.776;2022-12-07T03:03:20;10.50;94.70
36990;DHT22;22898;52.102;5.776;2022-12-07T03:08:34;10.70;94.70
36990;DHT22;22898;52.102;5.776;2022-12-07T03:13:56;10.90;94.50
36990;DHT22;22898;52.102;5.776;2022-12-07T03:16:27;10.90;94.40
36990;DHT22;22898;52.102;5.776;2022-12-07T03:18:58;10.90;94.50
36990;DHT22;22898;52.102;5.776;2022-12-07T03:21:33;11.00;94.50
36990;DHT22;22898;52.102;5.776;2022-12-07T03:24:00;11.10;94.70
36990;DHT22;22898;52.102;5.776;2022-12-07T03:26:33;11.20;94.20
36990;DHT22;22898;52.102;5.776;2022-12-07T03:29:05;11.20;94.00
36990;DHT22;22898;52.102;5.776;2022-12-07T03:31:34;11.30;94.00
36990;DHT22;22898;52.102;5.776;2022-12-07T03:34:16;11.30;93.90
36990;DHT22;22898;52.102;5.776;2022-12-07T03:36:57;11.30;93.90
36990;DHT22;22898;52.102;5.776;2022-12-07T03:42:22;11.40;93.90
36990;DHT22;22898;52.102;5.776;2022-12-07T03:44:48;11.40;93.80
36990;DHT22;22898;52.102;5.776;2022-12-07T03:47:30;11.40;93.80
36990;DHT22;22898;52.102;5.776;2022-12-07T03:53:11;11.50;93.50
36990;DHT22;22898;52.102;5.776;2022-12-07T03:55:42;11.30;93.70
36990;DHT22;22898;52.102;5.776;2022-12-07T03:58:12;11.20;94.00
36990;DHT22;22898;52.102;5.776;2022-12-07T04:00:40;11.20;94.00
36990;DHT22;22898;52.102;5.776;2022-12-07T04:03:06;11.30;93.70
36990;DHT22;22898;52.102;5.776;2022-12-07T04:05:32;11.10;93.80
36990;DHT22;22898;52.102;5.776;2022-12-07T04:07:57;11.00;94.10
36990;DHT22;22898;52.102;5.776;2022-12-07T04:10:23;11.00;94.10
36990;DHT22;22898;52.102;5.776;2022-12-07T04:12:48;11.00;94.00
36990;DHT22;22898;52.102;5.776;2022-12-07T04:15:14;11.00;93.90
36990;DHT22;22898;52.102;5.776;2022-12-07T04:17:40;11.00;93.90
36990;DHT22;22898;52.102;5.776;2022-12-07T04:20:06;11.00;93.90
36990;DHT22;22898;52.102;5.776;2022-12-07T04:22:32;11.00;93.90
36990;DHT22;22898;52.102;5.776;2022-12-07T04:24:58;11.00;94.00
36990;DHT22;22898;52.102;5.776;2022-12-07T04:27:24;10.80;94.10
36990;DHT22;22898;52.102;5.776;2022-12-07T04:29:49;10.60;95.10
36990;DHT22;22898;52.102;5.776;2022-12-07T04:32:15;10.60;95.10
36990;DHT22;22898;52.102;5.776;2022-12-07T04:34:40;10.80;94.80
36990;DHT22;22898;52.102;5.776;2022-12-07T04:37:06;11.00;94.50
36990;DHT22;22898;52.102;5.776;2022-12-07T04:39:32;11.10;94.30
36990;DHT22;22898;52.102;5.776;2022-12-07T04:41:59;10.90;94.30
36990;DHT22;22898;52.102;5.776;2022-12-07T04:44:25;10.50;95.20
36990;DHT22;22898;52.102;5.776;2022-12-07T04:46:52;10.40;95.20
36990;DHT22;22898;52.102;5.776;2022-12-07T04:49:18;10.50;95.10
36990;DHT22;22898;52.102;5.776;2022-12-07T04:51:45;10.50;95.00
36990;DHT22;22898;52.102;5.776;2022-12-07T04:54:12;10.50;94.80
36990;DHT22;22898;52.102;5.776;2022-12-07T04:56:38;10.60;94.50
36990;DHT22;22898;52.102;5.776;2022-12-07T04:59:04;10.60;94.70
36990;DHT22;22898;52.102;5.776;2022-12-07T05:01:30;10.50;94.80
36990;DHT22;22898;52.102;5.776;2022-12-07T05:03:56;10.50;94.70
36990;DHT22;22898;52.102;5.776;2022-12-07T05:06:22;10.50;94.70
36990;DHT22;22898;52.102;5.776;2022-12-07T05:08:47;10.50;94.60
36990;DHT22;22898;52.102;5.776;2022-12-07T05:11:14;10.50;94.70
36990;DHT22;22898;52.102;5.776;2022-12-07T05:14:00;10.60;94.70
36990;DHT22;22898;52.102;5.776;2022-12-07T05:16:26;10.60;94.50
36990;DHT22;22898;52.102;5.776;2022-12-07T05:18:52;10.70;94.50
36990;DHT22;22898;52.102;5.776;2022-12-07T05:21:17;10.70;94.30
36990;DHT22;22898;52.102;5.776;2022-12-07T05:23:43;10.80;94.30
36990;DHT22;22898;52.102;5.776;2022-12-07T05:26:09;10.60;94.50
36990;DHT22;22898;52.102;5.776;2022-12-07T05:28:34;10.60;94.70
36990;DHT22;22898;52.102;5.776;2022-12-07T05:31:00;10.70;94.30
36990;DHT22;22898;52.102;5.776;2022-12-07T05:33:25;10.80;94.10
36990;DHT22;22898;52.102;5.776;2022-12-07T05:35:51;10.70;94.00
36990;DHT22;22898;52.102;5.776;2022-12-07T05:38:16;10.70;94.20
36990;DHT22;22898;52.102;5.776;2022-12-07T05:40:42;10.70;94.20
36990;DHT22;22898;52.102;5.776;2022-12-07T05:43:07;10.70;94.10
36990;DHT22;22898;52.102;5.776;2022-12-07T05:45:33;10.70;94.00
36990;DHT22;22898;52.102;5.776;2022-12-07T05:47:58;10.70;93.90
36990;DHT22;22898;52.102;5.776;2022-12-07T05:50:24;10.70;93.90
36990;DHT22;22898;52.102;5.776;2022-12-07T05:52:50;10.60;93.90
36990;DHT22;22898;52.102;5.776;2022-12-07T05:55:15;10.60;93.80
36990;DHT22;22898;52.102;5.776;2022-12-07T05:57:41;10.60;93.80
36990;DHT22;22898;52.102;5.776;2022-12-07T06:00:26;10.50;93.80
36990;DHT22;22898;52.102;5.776;2022-12-07T06:02:52;10.50;93.80
36990;DHT22;22898;52.102;5.776;2022-12-07T06:05:17;10.40;93.70
36990;DHT22;22898;52.102;5.776;2022-12-07T06:07:43;10.40;93.70
36990;DHT22;22898;52.102;5.776;2022-12-07T06:10:09;10.40;93.60
36990;DHT22;22898;52.102;5.776;2022-12-07T06:12:34;10.40;93.60
36990;DHT22;22898;52.102;5.776;2022-12-07T06:15:00;10.30;93.70
36990;DHT22;22898;52.102;5.776;2022-12-07T06:17:26;10.20;93.70
36990;DHT22;22898;52.102;5.776;2022-12-07T06:19:51;10.20;93.80
36990;DHT22;22898;52.102;5.776;2022-12-07T06:22:17;10.20;93.80
36990;DHT22;22898;52.102;5.776;2022-12-07T06:24:43;10.10;93.90
36990;DHT22;22898;52.102;5.776;2022-12-07T06:27:09;10.20;93.90
36990;DHT22;22898;52.102;5.776;2022-12-07T06:29:36;10.10;93.90
36990;DHT22;22898;52.102;5.776;2022-12-07T06:32:02;10.10;93.90
36990;DHT22;22898;52.102;5.776;2022-12-07T06:34:28;10.10;94.00
36990;DHT22;22898;52.102;5.776;2022-12-07T06:36:54;10.20;94.00
36990;DHT22;22898;52.102;5.776;2022-12-07T06:39:26;10.20;94.10
36990;DHT22;22898;52.102;5.776;2022-12-07T06:41:52;10.10;94.20
36990;DHT22;22898;52.102;5.776;2022-12-07T06:44:19;10.10;94.20
36990;DHT22;22898;52.102;5.776;2022-12-07T06:46:45;10.20;94.10
36990;DHT22;22898;52.102;5.776;2022-12-07T06:49:11;10.20;94.00
36990;DHT22;22898;52.102;5.776;2022-12-07T06:51:37;10.20;93.90
36990;DHT22;22898;52.102;5.776;2022-12-07T06:54:07;10.30;94.00
36990;DHT22;22898;52.102;5.776;2022-12-07T06:56:32;10.30;93.80
36990;DHT22;22898;52.102;5.776;2022-12-07T06:58:58;10.30;94.00
36990;DHT22;22898;52.102;5.776;2022-12-07T07:01:23;10.20;93.70
36990;DHT22;22898;52.102;5.776;2022-12-07T07:03:49;10.30;93.70
36990;DHT22;22898;52.102;5.776;2022-12-07T07:06:15;10.20;93.60
36990;DHT22;22898;52.102;5.776;2022-12-07T07:08:41;10.20;93.50
36990;DHT22;22898;52.102;5.776;2022-12-07T07:11:08;10.20;93.60
36990;DHT22;22898;52.102;5.776;2022-12-07T07:13:34;10.10;93.60
36990;DHT22;22898;52.102;5.776;2022-12-07T07:16:00;10.10;93.60
36990;DHT22;22898;52.102;5.776;2022-12-07T07:18:26;10.00;93.60
36990;DHT22;22898;52.102;5.776;2022-12-07T07:20:52;9.90;93.60
36990;DHT22;22898;52.102;5.776;2022-12-07T07:23:18;9.70;94.30
36990;DHT22;22898;52.102;5.776;2022-12-07T07:25:44;9.50;94.90
36990;DHT22;22898;52.102;5.776;2022-12-07T07:28:10;9.50;94.70
36990;DHT22;22898;52.102;5.776;2022-12-07T07:30:36;9.50;94.70
36990;DHT22;22898;52.102;5.776;2022-12-07T07:33:04;9.60;94.70
36990;DHT22;22898;52.102;5.776;2022-12-07T07:35:31;9.60;94.60
36990;DHT22;22898;52.102;5.776;2022-12-07T07:37:57;9.70;94.40
36990;DHT22;22898;52.102;5.776;2022-12-07T07:40:23;9.80;94.30
36990;DHT22;22898;52.102;5.776;2022-12-07T07:42:50;9.80;94.10
36990;DHT22;22898;52.102;5.776;2022-12-07T07:45:17;9.90;94.00
36990;DHT22;22898;52.102;5.776;2022-12-07T07:47:43;9.90;93.90
36990;DHT22;22898;52.102;5.776;2022-12-07T07:50:09;10.00;93.90
36990;DHT22;22898;52.102;5.776;2022-12-07T07:52:34;10.00;93.80
36990;DHT22;22898;52.102;5.776;2022-12-07T07:55:00;10.00;93.90
36990;DHT22;22898;52.102;5.776;2022-12-07T07:57:25;10.00;93.90
36990;DHT22;22898;52.102;5.776;2022-12-07T07:59:52;10.00;94.00
36990;DHT22;22898;52.102;5.776;2022-12-07T08:02:21;10.10;94.00
36990;DHT22;22898;52.102;5.776;2022-12-07T08:04:47;10.20;93.90
36990;DHT22;22898;52.102;5.776;2022-12-07T08:07:14;10.30;93.80
36990;DHT22;22898;52.102;5.776;2022-12-07T08:09:40;10.40;93.80
36990;DHT22;22898;52.102;5.776;2022-12-07T08:12:06;10.30;94.10
36990;DHT22;22898;52.102;5.776;2022-12-07T08:14:32;10.40;94.00
36990;DHT22;22898;52.102;5.776;2022-12-07T08:16:58;10.60;93.60
36990;DHT22;22898;52.102;5.776;2022-12-07T08:19:24;10.70;93.50
36990;DHT22;22898;52.102;5.776;2022-12-07T08:21:49;10.60;93.50
36990;DHT22;22898;52.102;5.776;2022-12-07T08:24:15;10.60;93.70
36990;DHT22;22898;52.102;5.776;2022-12-07T08:26:42;10.70;93.70
36990;DHT22;22898;52.102;5.776;2022-12-07T08:29:07;10.70;93.70
36990;DHT22;22898;52.102;5.776;2022-12-07T08:31:33;10.70;93.60
36990;DHT22;22898;52.102;5.776;2022-12-07T08:33:59;10.80;93.60
36990;DHT22;22898;52.102;5.776;2022-12-07T08:36:25;10.90;93.50
36990;DHT22;22898;52.102;5.776;2022-12-07T08:38:50;11.00;93.20
36990;DHT22;22898;52.102;5.776;2022-12-07T08:41:16;11.00;93.20
36990;DHT22;22898;52.102;5.776;2022-12-07T08:43:42;11.00;93.40
36990;DHT22;22898;52.102;5.776;2022-12-07T08:48:44;10.90;93.40
36990;DHT22;22898;52.102;5.776;2022-12-07T08:51:11;10.90;93.60
36990;DHT22;22898;52.102;5.776;2022-12-07T08:53:38;11.00;93.70
36990;DHT22;22898;52.102;5.776;2022-12-07T08:56:05;11.00;93.80
36990;DHT22;22898;52.102;5.776;2022-12-07T08:58:32;11.10;94.30
36990;DHT22;22898;52.102;5.776;2022-12-07T09:00:58;11.20;93.90
36990;DHT22;22898;52.102;5.776;2022-12-07T09:03:23;11.40;93.90
36990;DHT22;22898;52.102;5.776;2022-12-07T09:05:49;11.40;93.70
36990;DHT22;22898;52.102;5.776;2022-12-07T09:08:15;11.60;93.60
36990;DHT22;22898;52.102;5.776;2022-12-07T09:10:41;11.70;93.80
36990;DHT22;22898;52.102;5.776;2022-12-07T09:13:06;11.80;93.60
36990;DHT22;22898;52.102;5.776;2022-12-07T09:15:32;11.90;93.40
36990;DHT22;22898;52.102;5.776;2022-12-07T09:17:57;11.90;93.70
36990;DHT22;22898;52.102;5.776;2022-12-07T09:20:23;11.80;93.40
36990;DHT22;22898;52.102;5.776;2022-12-07T09:22:48;11.70;93.50
36990;DHT22;22898;52.102;5.776;2022-12-07T09:25:14;11.60;93.40
36990;DHT22;22898;52.102;5.776;2022-12-07T09:27:40;11.60;93.60
36990;DHT22;22898;52.102;5.776;2022-12-07T09:30:07;11.40;93.60
36990;DHT22;22898;52.102;5.776;2022-12-07T09:32:32;11.30;93.70
36990;DHT22;22898;52.102;5.776;2022-12-07T09:34:58;10.90;94.70
36990;DHT22;22898;52.102;5.776;2022-12-07T09:37:24;10.90;94.90
36990;DHT22;22898;52.102;5.776;2022-12-07T09:39:49;11.20;94.70
36990;DHT22;22898;52.102;5.776;2022-12-07T09:44:53;11.40;94.30
36990;DHT22;22898;52.102;5.776;2022-12-07T09:47:18;11.40;93.90
36990;DHT22;22898;52.102;5.776;2022-12-07T09:49:44;11.10;94.50
36990;DHT22;22898;52.102;5.776;2022-12-07T09:52:25;11.10;94.40
36990;DHT22;22898;52.102;5.776;2022-12-07T09:54:51;10.90;95.10
36990;DHT22;22898;52.102;5.776;2022-12-07T09:57:19;10.90;95.40
36990;DHT22;22898;52.102;5.776;2022-12-07T09:59:46;11.00;95.30
36990;DHT22;22898;52.102;5.776;2022-12-07T10:02:28;10.70;95.80
36990;DHT22;22898;52.102;5.776;2022-12-07T10:04:59;10.20;96.30
36990;DHT22;22898;52.102;5.776;2022-12-07T10:07:25;9.80;97.10
36990;DHT22;22898;52.102;5.776;2022-12-07T10:09:50;9.40;98.00
36990;DHT22;22898;52.102;5.776;2022-12-07T10:12:16;9.50;98.20
36990;DHT22;22898;52.102;5.776;2022-12-07T10:15:04;9.40;98.30
36990;DHT22;22898;52.102;5.776;2022-12-07T10:17:36;9.40;98.40
36990;DHT22;22898;52.102;5.776;2022-12-07T10:20:20;9.40;98.40
36990;DHT22;22898;52.102;5.776;2022-12-07T10:25:26;9.90;97.70
36990;DHT22;22898;52.102;5.776;2022-12-07T10:28:00;9.60;98.00
36990;DHT22;22898;52.102;5.776;2022-12-07T10:30:26;9.40;98.70
36990;DHT22;22898;52.102;5.776;2022-12-07T10:32:52;9.40;98.90
36990;DHT22;22898;52.102;5.776;2022-12-07T10:37:43;9.90;97.80
36990;DHT22;22898;52.102;5.776;2022-12-07T10:45:32;9.50;98.50
36990;DHT22;22898;52.102;5.776;2022-12-07T10:56:58;9.20;99.10
36990;DHT22;22898;52.102;5.776;2022-12-07T11:05:30;10.40;97.30
36990;DHT22;22898;52.102;5.776;2022-12-07T11:08:15;10.30;97.80
36990;DHT22;22898;52.102;5.776;2022-12-07T11:10:55;10.60;97.00
36990;DHT22;22898;52.102;5.776;2022-12-07T11:13:39;10.60;96.80
36990;DHT22;22898;52.102;5.776;2022-12-07T11:16:34;10.60;97.10
36990;DHT22;22898;52.102;5.776;2022-12-07T11:22:01;10.60;96.70
36990;DHT22;22898;52.102;5.776;2022-12-07T11:27:29;10.70;96.90
36990;DHT22;22898;52.102;5.776;2022-12-07T11:32:54;11.00;96.30
36990;DHT22;22898;52.102;5.776;2022-12-07T11:38:14;10.80;96.50
36990;DHT22;22898;52.102;5.776;2022-12-07T11:40:40;10.50;97.10
36990;DHT22;22898;52.102;5.776;2022-12-07T11:43:18;10.60;97.20
36990;DHT22;22898;52.102;5.776;2022-12-07T11:45:52;11.40;96.40
36990;DHT22;22898;52.102;5.776;2022-12-07T11:48:28;11.90;94.70
36990;DHT22;22898;52.102;5.776;2022-12-07T11:51:01;11.70;94.90
36990;DHT22;22898;52.102;5.776;2022-12-07T11:53:39;11.20;95.40
36990;DHT22;22898;52.102;5.776;2022-12-07T12:01:42;10.50;97.00
36990;DHT22;22898;52.102;5.776;2022-12-07T12:06:41;10.40;97.30
36990;DHT22;22898;52.102;5.776;2022-12-07T12:09:47;10.30;97.30
36990;DHT22;22898;52.102;5.776;2022-12-07T12:17:23;11.20;96.00
36990;DHT22;22898;52.102;5.776;2022-12-07T12:22:37;10.90;95.60
36990;DHT22;22898;52.102;5.776;2022-12-07T12:25:06;10.20;96.40
36990;DHT22;22898;52.102;5.776;2022-12-07T12:27:35;10.30;96.50
36990;DHT22;22898;52.102;5.776;2022-12-07T12:30:05;10.50;96.40
36990;DHT22;22898;52.102;5.776;2022-12-07T12:32:42;11.10;95.20
36990;DHT22;22898;52.102;5.776;2022-12-07T12:38:29;11.90;94.00
36990;DHT22;22898;52.102;5.776;2022-12-07T12:40:59;11.80;93.80
36990;DHT22;22898;52.102;5.776;2022-12-07T12:43:41;12.10;93.70
36990;DHT22;22898;52.102;5.776;2022-12-07T12:54:32;12.20;92.90
36990;DHT22;22898;52.102;5.776;2022-12-07T12:57:19;11.70;93.80
36990;DHT22;22898;52.102;5.776;2022-12-07T13:02:38;11.60;94.50
36990;DHT22;22898;52.102;5.776;2022-12-07T13:15:47;11.70;94.30
36990;DHT22;22898;52.102;5.776;2022-12-07T13:23:54;11.40;94.80
36990;DHT22;22898;52.102;5.776;2022-12-07T13:26:39;11.20;95.20
36990;DHT22;22898;52.102;5.776;2022-12-07T13:31:49;11.10;95.00
36990;DHT22;22898;52.102;5.776;2022-12-07T13:34:32;10.40;96.60
36990;DHT22;22898;52.102;5.776;2022-12-07T13:37:45;10.20;96.90
36990;DHT22;22898;52.102;5.776;2022-12-07T13:39:51;9.40;98.60
36990;DHT22;22898;52.102;5.776;2022-12-07T13:42:35;9.10;99.70
36990;DHT22;22898;52.102;5.776;2022-12-07T13:45:35;8.70;99.90
36990;DHT22;22898;52.102;5.776;2022-12-07T13:48:22;8.50;99.90
36990;DHT22;22898;52.102;5.776;2022-12-07T13:50:56;8.90;99.90
36990;DHT22;22898;52.102;5.776;2022-12-07T13:53:22;9.20;99.90
36990;DHT22;22898;52.102;5.776;2022-12-07T13:55:49;9.40;99.90
36990;DHT22;22898;52.102;5.776;2022-12-07T13:58:15;9.70;99.90
36990;DHT22;22898;52.102;5.776;2022-12-07T14:00:41;9.90;99.90
36990;DHT22;22898;52.102;5.776;2022-12-07T14:05:40;10.60;99.00
36990;DHT22;22898;52.102;5.776;2022-12-07T14:13:31;11.20;97.60
36990;DHT22;22898;52.102;5.776;2022-12-07T14:16:00;11.00;98.10
36990;DHT22;22898;52.102;5.776;2022-12-07T14:18:39;10.90;98.30
36990;DHT22;22898;52.102;5.776;2022-12-07T14:21:15;11.20;98.10
36990;DHT22;22898;52.102;5.776;2022-12-07T14:23:43;11.70;97.60
36990;DHT22;22898;52.102;5.776;2022-12-07T14:26:19;11.90;96.90
36990;DHT22;22898;52.102;5.776;2022-12-07T14:28:45;11.80;97.20
36990;DHT22;22898;52.102;5.776;2022-12-07T14:31:18;11.70;96.60
36990;DHT22;22898;52.102;5.776;2022-12-07T14:33:46;11.60;97.10
36990;DHT22;22898;52.102;5.776;2022-12-07T14:36:13;11.70;96.60
36990;DHT22;22898;52.102;5.776;2022-12-07T14:38:39;11.80;96.50
36990;DHT22;22898;52.102;5.776;2022-12-07T14:41:12;11.80;96.40
36990;DHT22;22898;52.102;5.776;2022-12-07T14:43:57;11.80;96.80
36990;DHT22;22898;52.102;5.776;2022-12-07T14:46:23;12.10;96.20
36990;DHT22;22898;52.102;5.776;2022-12-07T14:48:49;12.40;95.50
36990;DHT22;22898;52.102;5.776;2022-12-07T14:51:14;12.40;95.40
36990;DHT22;22898;52.102;5.776;2022-12-07T14:53:42;12.20;95.50
36990;DHT22;22898;52.102;5.776;2022-12-07T14:56:09;12.10;95.30
36990;DHT22;22898;52.102;5.776;2022-12-07T14:58:35;11.90;96.10
36990;DHT22;22898;52.102;5.776;2022-12-07T15:01:00;12.10;95.80
36990;DHT22;22898;52.102;5.776;2022-12-07T15:03:26;12.30;95.30
36990;DHT22;22898;52.102;5.776;2022-12-07T15:05:52;12.40;95.10
36990;DHT22;22898;52.102;5.776;2022-12-07T15:08:18;12.50;94.90
36990;DHT22;22898;52.102;5.776;2022-12-07T15:10:43;12.60;94.50
36990;DHT22;22898;52.102;5.776;2022-12-07T15:13:09;12.60;94.60
36990;DHT22;22898;52.102;5.776;2022-12-07T15:15:54;12.60;94.40
36990;DHT22;22898;52.102;5.776;2022-12-07T15:18:21;12.70;94.20
36990;DHT22;22898;52.102;5.776;2022-12-07T15:20:47;12.80;94.00
36990;DHT22;22898;52.102;5.776;2022-12-07T15:23:13;12.80;94.10
36990;DHT22;22898;52.102;5.776;2022-12-07T15:25:43;12.80;94.00
36990;DHT22;22898;52.102;5.776;2022-12-07T15:28:09;12.90;93.70
36990;DHT22;22898;52.102;5.776;2022-12-07T15:30:37;13.00;93.70
36990;DHT22;22898;52.102;5.776;2022-12-07T15:33:03;13.00;93.70
36990;DHT22;22898;52.102;5.776;2022-12-07T15:35:28;13.00;93.50
36990;DHT22;22898;52.102;5.776;2022-12-07T15:37:54;13.10;93.40
36990;DHT22;22898;52.102;5.776;2022-12-07T15:40:19;13.00;93.30
36990;DHT22;22898;52.102;5.776;2022-12-07T15:42:45;13.10;93.40
36990;DHT22;22898;52.102;5.776;2022-12-07T15:45:11;13.10;93.20
36990;DHT22;22898;52.102;5.776;2022-12-07T15:47:41;13.10;93.20
36990;DHT22;22898;52.102;5.776;2022-12-07T15:50:16;13.00;93.10
36990;DHT22;22898;52.102;5.776;2022-12-07T15:52:42;12.40;93.90
36990;DHT22;22898;52.102;5.776;2022-12-07T15:55:09;12.30;94.40
36990;DHT22;22898;52.102;5.776;2022-12-07T15:57:36;12.30;94.30
36990;DHT22;22898;52.102;5.776;2022-12-07T16:00:04;12.40;94.40
36990;DHT22;22898;52.102;5.776;2022-12-07T16:02:29;12.30;94.40
36990;DHT22;22898;52.102;5.776;2022-12-07T16:04:55;12.40;94.40
36990;DHT22;22898;52.102;5.776;2022-12-07T16:07:21;12.40;94.20
36990;DHT22;22898;52.102;5.776;2022-12-07T16:09:47;12.40;94.20
36990;DHT22;22898;52.102;5.776;2022-12-07T16:12:13;12.60;93.90
36990;DHT22;22898;52.102;5.776;2022-12-07T16:14:40;12.60;93.80
36990;DHT22;22898;52.102;5.776;2022-12-07T16:17:06;12.60;93.70
36990;DHT22;22898;52.102;5.776;2022-12-07T16:19:33;12.60;93.60
36990;DHT22;22898;52.102;5.776;2022-12-07T16:21:59;12.50;93.50
36990;DHT22;22898;52.102;5.776;2022-12-07T16:24:25;12.40;93.60
36990;DHT22;22898;52.102;5.776;2022-12-07T16:26:51;12.50;93.60
36990;DHT22;22898;52.102;5.776;2022-12-07T16:29:19;12.40;93.60
36990;DHT22;22898;52.102;5.776;2022-12-07T16:31:45;12.40;93.60
36990;DHT22;22898;52.102;5.776;2022-12-07T16:34:10;12.50;93.70
36990;DHT22;22898;52.102;5.776;2022-12-07T16:36:36;12.50;93.60
36990;DHT22;22898;52.102;5.776;2022-12-07T16:39:02;12.50;93.50
36990;DHT22;22898;52.102;5.776;2022-12-07T16:41:28;12.60;93.50
36990;DHT22;22898;52.102;5.776;2022-12-07T16:43:53;12.60;93.40
36990;DHT22;22898;52.102;5.776;2022-12-07T16:46:19;12.60;93.40
36990;DHT22;22898;52.102;5.776;2022-12-07T16:48:44;12.60;93.30
36990;DHT22;22898;52.102;5.776;2022-12-07T16:51:12;12.60;93.30
36990;DHT22;22898;52.102;5.776;2022-12-07T16:53:39;12.60;93.20
36990;DHT22;22898;52.102;5.776;2022-12-07T16:56:13;12.60;93.20
36990;DHT22;22898;52.102;5.776;2022-12-07T16:58:40;12.60;93.20
36990;DHT22;22898;52.102;5.776;2022-12-07T17:01:18;12.60;93.20
36990;DHT22;22898;52.102;5.776;2022-12-07T17:03:44;12.60;93.00
36990;DHT22;22898;52.102;5.776;2022-12-07T17:06:12;12.60;93.10
36990;DHT22;22898;52.102;5.776;2022-12-07T17:08:39;12.60;93.00
36990;DHT22;22898;52.102;5.776;2022-12-07T17:11:10;12.50;93.10
36990;DHT22;22898;52.102;5.776;2022-12-07T17:13:36;12.50;93.20
36990;DHT22;22898;52.102;5.776;2022-12-07T17:16:20;12.50;93.20
36990;DHT22;22898;52.102;5.776;2022-12-07T17:18:45;12.50;93.20
36990;DHT22;22898;52.102;5.776;2022-12-07T17:21:11;12.50;93.10
36990;DHT22;22898;52.102;5.776;2022-12-07T17:23:36;12.50;93.10
36990;DHT22;22898;52.102;5.776;2022-12-07T17:26:09;12.40;93.10
36990;DHT22;22898;52.102;5.776;2022-12-07T17:28:36;12.50;93.10
36990;DHT22;22898;52.102;5.776;2022-12-07T17:31:05;12.40;93.00
36990;DHT22;22898;52.102;5.776;2022-12-07T17:33:31;12.30;93.30
36990;DHT22;22898;52.102;5.776;2022-12-07T17:35:57;12.30;93.20
36990;DHT22;22898;52.102;5.776;2022-12-07T17:38:23;12.40;93.00
36990;DHT22;22898;52.102;5.776;2022-12-07T17:40:48;12.20;93.20
36990;DHT22;22898;52.102;5.776;2022-12-07T17:43:14;12.20;93.20
36990;DHT22;22898;52.102;5.776;2022-12-07T17:45:39;12.20;93.30
36990;DHT22;22898;52.102;5.776;2022-12-07T17:48:05;12.20;93.20
36990;DHT22;22898;52.102;5.776;2022-12-07T17:50:30;12.30;93.20